createdAt,value
2022-09-30T00:00:40.339Z,15.30
2022-09-30T00:03:08.969Z,15.30
2022-09-30T00:05:39.022Z,15.40
2022-09-30T00:08:08.433Z,15.10
2022-09-30T00:10:37.008Z,15.10
2022-09-30T00:13:05.584Z,15.20
2022-09-30T00:15:34.118Z,15.40
2022-09-30T00:23:36.492Z,15.30
2022-09-30T00:26:07.631Z,15.20
2022-09-30T00:28:36.293Z,15.10
2022-09-30T00:31:07.442Z,15.30
2022-09-30T00:33:36.680Z,15.20
2022-09-30T00:36:24.868Z,15.20
2022-09-30T00:39:14.021Z,15.30
2022-09-30T00:41:42.959Z,15.30
2022-09-30T00:44:51.108Z,15.40
2022-09-30T00:47:43.646Z,15.30
2022-09-30T00:50:34.367Z,15.40
2022-09-30T00:53:09.873Z,15.30
2022-09-30T00:55:49.205Z,15.20
2022-09-30T00:58:22.765Z,15.10
2022-09-30T01:00:52.806Z,15.10
2022-09-30T01:03:23.413Z,15.10
2022-09-30T01:05:53.503Z,15.10
2022-09-30T01:08:25.041Z,15.10
2022-09-30T01:11:12.026Z,14.90
2022-09-30T01:13:42.405Z,14.90
2022-09-30T01:16:36.440Z,15.10
2022-09-30T01:19:47.572Z,15.10
2022-09-30T01:22:22.968Z,15.20
2022-09-30T01:25:26.550Z,14.90
2022-09-30T01:28:27.787Z,15.00
2022-09-30T01:31:16.449Z,15.00
2022-09-30T01:33:52.098Z,14.90
2022-09-30T01:36:31.329Z,15.00
2022-09-30T01:39:10.567Z,15.10
2022-09-30T01:42:06.628Z,15.10
2022-09-30T01:44:39.259Z,15.20
2022-09-30T01:47:16.957Z,15.30
2022-09-30T01:49:53.794Z,15.20
2022-09-30T01:52:26.035Z,15.20
2022-09-30T01:55:00.635Z,15.20
2022-09-30T01:57:39.613Z,15.10
2022-09-30T02:00:10.803Z,15.20
2022-09-30T02:02:47.223Z,15.00
2022-09-30T02:08:46.394Z,15.00
2022-09-30T02:11:18.433Z,14.90
2022-09-30T02:13:52.756Z,14.80
2022-09-30T02:16:25.731Z,14.80
2022-09-30T02:21:48.573Z,15.00
2022-09-30T02:24:20.263Z,15.10
2022-09-30T02:26:50.683Z,15.20
2022-09-30T02:29:40.927Z,15.00
2022-09-30T02:32:15.717Z,14.80
2022-09-30T04:05:30.160Z,15.10
2022-09-30T04:35:39.658Z,15.10
2022-09-30T04:38:08.551Z,15.10
2022-09-30T04:40:57.883Z,15.20
2022-09-30T04:43:26.842Z,15.20
2022-09-30T04:45:55.432Z,15.20
2022-09-30T04:48:45.850Z,15.20
2022-09-30T04:51:15.121Z,15.20
2022-09-30T04:53:44.415Z,15.10
2022-09-30T04:56:14.951Z,15.10
2022-09-30T04:58:44.131Z,15.10
2022-09-30T05:03:43.507Z,15.00
2022-09-30T05:06:12.552Z,15.10
2022-09-30T05:08:45.720Z,15.20
2022-09-30T05:11:19.008Z,15.10
2022-09-30T05:13:48.715Z,15.10
2022-09-30T05:16:18.983Z,15.10
2022-09-30T05:18:47.918Z,15.20
2022-09-30T05:21:18.345Z,15.10
2022-09-30T05:24:05.605Z,15.10
2022-09-30T05:26:35.632Z,15.10
2022-09-30T05:29:04.491Z,15.10
2022-09-30T05:34:19.172Z,15.40
2022-09-30T05:36:47.768Z,15.10
2022-09-30T05:39:16.646Z,15.30
2022-09-30T05:44:32.374Z,15.10
2022-09-30T05:47:01.180Z,15.00
2022-09-30T05:49:29.790Z,15.00
2022-09-30T05:51:58.317Z,15.00
2022-09-30T05:54:26.858Z,15.10
2022-09-30T05:57:15.635Z,15.10
2022-09-30T06:00:02.995Z,15.10
2022-09-30T06:02:41.533Z,15.00
2022-09-30T06:05:10.930Z,15.30
2022-09-30T06:07:42.448Z,15.10
2022-09-30T06:10:48.270Z,15.00
2022-09-30T06:13:37.491Z,15.00
2022-09-30T06:18:52.809Z,15.10
2022-09-30T06:21:40.194Z,15.20
2022-09-30T06:24:09.578Z,15.30
2022-09-30T06:26:38.164Z,15.50
2022-09-30T06:29:08.078Z,15.40
2022-09-30T06:31:36.716Z,15.50
2022-09-30T06:34:05.710Z,15.40
2022-09-30T06:36:34.600Z,15.50
2022-09-30T06:39:04.062Z,15.40
2022-09-30T06:41:32.881Z,15.40
2022-09-30T06:44:01.434Z,15.40
2022-09-30T06:46:31.704Z,15.60
2022-09-30T06:49:13.337Z,15.60
2022-09-30T06:52:27.313Z,15.60
2022-09-30T06:54:57.628Z,15.50
2022-09-30T06:57:27.927Z,15.50
2022-09-30T06:59:56.950Z,15.60
2022-09-30T07:05:14.144Z,15.70
2022-09-30T07:13:02.568Z,15.70
2022-09-30T07:15:31.216Z,15.80
2022-09-30T07:18:01.782Z,16.00
2022-09-30T07:20:31.620Z,16.10
2022-09-30T07:23:00.192Z,16.20
2022-09-30T07:25:28.693Z,16.40
2022-09-30T07:27:57.304Z,16.40
2022-09-30T07:30:27.475Z,16.50
2022-09-30T07:32:57.095Z,16.80
2022-09-30T07:35:27.148Z,16.50
2022-09-30T07:40:42.660Z,16.60
2022-09-30T07:43:34.941Z,16.70
2022-09-30T07:46:06.063Z,16.60
2022-09-30T07:48:54.737Z,16.70
2022-09-30T07:51:27.676Z,16.80
2022-09-30T07:54:17.712Z,16.80
2022-09-30T07:59:38.647Z,16.90
2022-09-30T08:02:08.636Z,17.00
2022-09-30T08:04:55.611Z,17.00
2022-09-30T08:07:25.562Z,17.00
2022-09-30T08:09:54.132Z,16.90
2022-09-30T08:12:22.814Z,17.00
2022-09-30T08:14:51.411Z,17.30
2022-09-30T08:20:24.702Z,17.50
2022-09-30T08:23:14.535Z,17.50
2022-09-30T08:25:43.142Z,17.60
2022-09-30T08:28:11.753Z,18.00
2022-09-30T08:36:50.212Z,18.30
2022-09-30T08:39:39.149Z,18.10
2022-09-30T08:42:42.457Z,17.90
2022-09-30T08:48:37.932Z,18.00
2022-09-30T08:51:20.874Z,17.80
2022-09-30T08:53:50.283Z,17.70
2022-09-30T08:56:25.255Z,17.80
2022-09-30T08:58:58.288Z,17.80
2022-09-30T09:01:33.582Z,17.80
2022-09-30T09:04:04.492Z,17.60
2022-09-30T09:06:59.973Z,17.70
2022-09-30T09:09:44.823Z,17.80
2022-09-30T09:15:28.793Z,18.10
2022-09-30T09:18:24.084Z,18.30
2022-09-30T09:20:57.246Z,18.40
2022-09-30T09:23:26.783Z,18.30
2022-09-30T09:25:56.042Z,18.20
2022-09-30T09:28:33.925Z,18.50
2022-09-30T09:31:21.677Z,18.50
2022-09-30T09:36:53.520Z,18.70
2022-09-30T09:39:40.386Z,18.50
2022-09-30T09:42:37.007Z,18.30
2022-09-30T09:45:17.337Z,18.40
2022-09-30T09:47:52.346Z,18.50
2022-09-30T09:50:44.063Z,18.40
2022-09-30T09:53:31.259Z,18.50
2022-09-30T09:56:03.265Z,18.40
2022-09-30T09:58:34.826Z,18.20
2022-09-30T10:01:32.382Z,18.30
2022-09-30T10:04:26.840Z,18.50
2022-09-30T10:07:00.013Z,18.70
2022-09-30T10:09:47.030Z,18.70
2022-09-30T10:12:33.973Z,18.70
2022-09-30T10:15:26.579Z,18.90
2022-09-30T10:17:58.282Z,18.90
2022-09-30T10:20:31.374Z,19.00
2022-09-30T10:26:02.013Z,19.10
2022-09-30T10:28:34.435Z,19.10
2022-09-30T10:31:06.978Z,19.00
2022-09-30T10:33:43.457Z,19.00
2022-09-30T10:36:16.897Z,19.00
2022-09-30T10:39:04.102Z,19.10
2022-09-30T10:41:38.305Z,19.20
2022-09-30T10:44:13.808Z,19.20
2022-09-30T10:46:44.849Z,19.10
2022-09-30T10:49:27.261Z,19.10
2022-09-30T10:51:56.610Z,19.20
2022-09-30T10:54:48.000Z,19.00
2022-09-30T10:57:18.220Z,18.90
2022-09-30T10:59:48.120Z,18.70
2022-09-30T11:02:31.101Z,18.60
2022-09-30T11:05:25.600Z,18.70
2022-09-30T11:07:59.860Z,18.60
2022-09-30T11:10:37.340Z,18.60
2022-09-30T11:13:12.525Z,18.70
2022-09-30T11:15:50.196Z,18.50
2022-09-30T11:18:27.466Z,18.50
2022-09-30T11:21:02.082Z,18.60
2022-09-30T11:23:34.156Z,18.60
2022-09-30T11:26:09.079Z,18.60
2022-09-30T11:29:00.060Z,18.80
2022-09-30T11:31:34.703Z,18.80
2022-09-30T11:34:18.535Z,18.70
2022-09-30T11:36:56.694Z,18.80
2022-09-30T11:39:48.952Z,18.70
2022-09-30T11:42:24.577Z,18.80
2022-09-30T11:45:29.483Z,18.70
2022-09-30T11:51:46.172Z,18.70
2022-09-30T11:54:31.038Z,18.80
2022-09-30T11:57:08.464Z,18.80
2022-09-30T11:59:43.198Z,18.70
2022-09-30T12:02:26.797Z,18.70
2022-09-30T12:05:19.982Z,18.80
2022-09-30T12:07:52.382Z,18.70
2022-09-30T12:10:27.565Z,18.70
2022-09-30T12:13:01.780Z,18.60
2022-09-30T12:15:32.015Z,18.50
2022-09-30T12:21:19.145Z,18.50
2022-09-30T12:23:50.580Z,18.50
2022-09-30T12:26:20.700Z,18.60
2022-09-30T12:29:13.381Z,18.60
2022-09-30T12:32:09.158Z,18.50
2022-09-30T12:34:53.738Z,18.30
2022-09-30T12:37:38.219Z,18.40
2022-09-30T12:40:52.352Z,18.40
2022-09-30T12:43:55.695Z,18.50
2022-09-30T12:46:43.207Z,18.20
2022-09-30T12:49:17.500Z,18.40
2022-09-30T12:51:50.374Z,18.30
2022-09-30T12:54:41.220Z,18.30
2022-09-30T12:57:28.631Z,18.20
2022-09-30T13:00:02.977Z,18.20
2022-09-30T13:02:51.106Z,18.10
2022-09-30T13:05:58.095Z,18.20
2022-09-30T13:08:48.643Z,18.10
2022-09-30T13:11:36.363Z,18.20
2022-09-30T13:14:25.698Z,18.10
2022-09-30T13:17:24.036Z,18.10
2022-09-30T13:19:54.132Z,18.00
2022-09-30T13:22:56.119Z,18.20
2022-09-30T13:25:24.718Z,18.10
2022-09-30T13:27:56.231Z,18.00
2022-09-30T13:30:40.303Z,18.00
2022-09-30T13:33:45.990Z,18.10
2022-09-30T13:36:26.636Z,18.00
2022-09-30T13:39:20.850Z,18.00
2022-09-30T13:42:02.511Z,18.10
2022-09-30T13:44:57.216Z,17.90
2022-09-30T13:47:33.946Z,18.00
2022-09-30T13:50:13.547Z,18.00
2022-09-30T13:52:43.291Z,17.90
2022-09-30T13:55:19.876Z,17.90
2022-09-30T13:57:59.328Z,18.00
2022-09-30T14:00:36.116Z,18.00
2022-09-30T14:06:15.319Z,17.80
2022-09-30T14:09:02.902Z,17.80
2022-09-30T14:11:46.925Z,17.90
2022-09-30T14:14:31.675Z,17.90
2022-09-30T14:20:25.186Z,17.90
2022-09-30T14:22:55.351Z,17.80
2022-09-30T14:25:46.382Z,18.00
2022-09-30T14:28:24.265Z,17.90
2022-09-30T14:31:16.110Z,17.80
2022-09-30T14:33:48.861Z,17.70
2022-09-30T14:36:20.557Z,17.70
2022-09-30T14:38:54.871Z,17.80
2022-09-30T14:41:25.074Z,17.70
2022-09-30T14:44:17.759Z,17.80
2022-09-30T14:46:48.440Z,17.70
2022-09-30T14:49:22.552Z,17.60
2022-09-30T14:51:51.285Z,17.60
2022-09-30T14:54:41.512Z,17.70
2022-09-30T14:57:18.166Z,17.60
2022-09-30T14:59:46.672Z,17.60
2022-09-30T15:02:20.430Z,17.50
2022-09-30T15:04:52.264Z,17.50
2022-09-30T15:07:41.213Z,17.50
2022-09-30T15:10:20.111Z,17.60
2022-09-30T15:12:50.454Z,17.50
2022-09-30T15:15:40.553Z,17.30
2022-09-30T15:18:44.403Z,17.50
2022-09-30T15:21:50.233Z,17.40
2022-09-30T15:24:20.417Z,17.40
2022-09-30T15:27:14.825Z,17.50
2022-09-30T15:29:55.742Z,17.50
2022-09-30T15:32:26.876Z,17.50
2022-09-30T15:34:58.609Z,17.40
2022-09-30T15:37:33.623Z,17.40
2022-09-30T15:40:39.764Z,17.30
2022-09-30T15:43:36.968Z,17.40
2022-09-30T15:46:22.694Z,17.30
2022-09-30T15:51:40.184Z,17.30
2022-09-30T15:54:32.451Z,17.40
2022-09-30T15:57:03.396Z,17.20
2022-09-30T16:06:01.723Z,17.20
2022-09-30T16:08:32.223Z,17.10
2022-09-30T16:11:05.164Z,17.20
2022-09-30T16:13:39.444Z,17.10
2022-09-30T16:16:19.752Z,17.00
2022-09-30T16:19:18.583Z,17.10
2022-09-30T16:21:50.967Z,17.00
2022-09-30T16:24:45.107Z,17.00
2022-09-30T16:27:30.425Z,17.10
2022-09-30T16:30:02.906Z,17.00
2022-09-30T16:32:40.204Z,17.00
2022-09-30T16:35:18.443Z,17.00
2022-09-30T16:37:47.580Z,16.90
2022-09-30T16:40:38.114Z,16.90
2022-09-30T16:43:07.923Z,16.90
2022-09-30T16:48:13.036Z,16.90
2022-09-30T16:50:48.970Z,16.70
2022-09-30T16:53:19.954Z,16.60
2022-09-30T16:55:48.510Z,16.70
2022-09-30T16:58:17.413Z,16.60
2022-09-30T17:01:06.242Z,16.60
2022-09-30T17:03:36.901Z,16.60
2022-09-30T17:06:07.341Z,16.60
2022-09-30T17:08:54.882Z,16.70
2022-09-30T17:11:27.048Z,16.60
2022-09-30T17:13:55.598Z,16.70
2022-09-30T17:16:42.783Z,16.80
2022-09-30T17:19:11.620Z,16.70
2022-09-30T17:21:41.659Z,16.60
2022-09-30T17:24:10.488Z,16.70
2022-09-30T17:26:39.853Z,16.70
2022-09-30T17:29:30.953Z,16.60
2022-09-30T17:31:57.044Z,16.60
2022-09-30T17:34:28.165Z,16.60
2022-09-30T17:36:59.614Z,16.70
2022-09-30T17:39:28.857Z,16.60
2022-09-30T17:42:34.977Z,16.60
2022-09-30T17:45:05.627Z,16.50
2022-09-30T17:47:34.185Z,16.60
2022-09-30T17:50:06.105Z,16.60
2022-09-30T17:52:36.035Z,16.50
2022-09-30T17:55:04.816Z,16.40
2022-09-30T17:57:40.128Z,16.40
2022-09-30T18:00:09.821Z,16.40
2022-09-30T18:02:38.886Z,16.40
2022-09-30T18:05:07.963Z,16.40
2022-09-30T18:07:38.015Z,16.50
2022-09-30T18:10:08.152Z,16.40
2022-09-30T18:12:36.735Z,16.40
2022-09-30T18:15:06.008Z,16.40
2022-09-30T18:17:34.615Z,16.40
2022-09-30T18:22:51.443Z,16.50
2022-09-30T18:25:58.077Z,16.60
2022-09-30T18:28:26.817Z,16.50
2022-09-30T18:30:55.484Z,16.40
2022-09-30T18:33:24.004Z,16.40
2022-09-30T18:39:17.695Z,16.30
2022-09-30T18:41:48.737Z,16.30
2022-09-30T18:44:17.422Z,16.30
2022-09-30T18:47:04.549Z,16.20
2022-09-30T18:49:51.839Z,16.30
2022-09-30T18:52:20.481Z,16.20
2022-09-30T18:54:50.412Z,16.20
2022-09-30T18:57:18.953Z,16.20
2022-09-30T19:02:33.660Z,16.20
2022-09-30T19:05:22.210Z,16.10
2022-09-30T19:07:50.790Z,16.10
2022-09-30T19:10:39.690Z,16.10
2022-09-30T19:13:28.759Z,16.10
2022-09-30T19:16:03.525Z,16.10
2022-09-30T19:18:51.063Z,16.10
2022-09-30T19:21:22.292Z,16.10
2022-09-30T19:23:50.830Z,16.10
2022-09-30T19:26:21.102Z,16.10
2022-09-30T19:28:49.773Z,16.10
2022-09-30T19:31:20.751Z,16.10
2022-09-30T19:36:48.220Z,16.00
2022-09-30T19:39:20.282Z,16.00
2022-09-30T19:42:08.682Z,16.00
2022-09-30T19:44:38.234Z,16.00
2022-09-30T19:47:06.926Z,15.90
2022-09-30T19:49:35.514Z,16.10
2022-09-30T19:52:13.122Z,16.00
2022-09-30T19:57:35.021Z,15.90
2022-09-30T20:00:05.530Z,16.00
2022-09-30T20:02:37.806Z,16.00
2022-09-30T20:05:07.101Z,16.00
2022-09-30T20:07:36.041Z,16.00
2022-09-30T20:10:24.202Z,16.00
2022-09-30T20:12:54.522Z,15.90
2022-09-30T20:15:45.977Z,15.80
2022-09-30T20:20:45.721Z,16.00
2022-09-30T20:23:14.666Z,16.00
2022-09-30T20:25:43.791Z,15.90
2022-09-30T20:28:13.801Z,16.00
2022-09-30T20:30:45.678Z,15.90
2022-09-30T20:33:16.397Z,16.00
2022-09-30T20:35:45.331Z,16.00
2022-09-30T20:38:16.299Z,15.90
2022-09-30T20:43:15.771Z,15.90
2022-09-30T20:45:44.370Z,16.00
2022-09-30T20:50:43.541Z,15.90
2022-09-30T20:53:14.093Z,16.00
2022-09-30T20:56:01.518Z,16.00
2022-09-30T20:58:50.332Z,16.00
2022-09-30T21:01:20.823Z,16.00
2022-09-30T21:06:37.101Z,15.90
2022-09-30T21:11:51.621Z,15.80
2022-09-30T21:17:25.691Z,15.90
2022-09-30T21:20:13.044Z,16.00
2022-09-30T21:22:43.993Z,16.00
2022-09-30T21:25:13.227Z,15.90
2022-09-30T21:28:00.527Z,15.80
2022-09-30T21:30:48.880Z,15.90
2022-09-30T21:33:17.477Z,15.90
2022-09-30T21:35:46.190Z,15.90
2022-09-30T21:40:47.617Z,15.90
2022-09-30T21:43:16.145Z,15.80
2022-09-30T21:45:46.614Z,15.80
2022-09-30T21:48:15.170Z,15.80
2022-09-30T21:50:43.941Z,15.90
2022-09-30T21:53:12.527Z,15.90
2022-09-30T21:58:27.941Z,15.80
2022-09-30T22:01:00.829Z,16.00
2022-09-30T22:03:30.916Z,16.00
2022-09-30T22:06:19.336Z,16.10
2022-09-30T22:09:06.222Z,15.90
2022-09-30T22:11:34.998Z,16.10
2022-09-30T22:14:22.460Z,15.90
2022-09-30T22:16:55.891Z,16.00
2022-09-30T22:19:24.512Z,16.10
2022-09-30T22:21:53.051Z,16.10
2022-09-30T22:27:09.262Z,16.00
2022-09-30T22:29:37.830Z,16.00
2022-09-30T22:32:07.894Z,16.00
2022-09-30T22:35:12.276Z,16.00
2022-09-30T22:37:58.035Z,16.10
2022-09-30T22:40:45.464Z,16.20
2022-09-30T22:43:13.986Z,16.00
2022-09-30T22:48:31.979Z,16.00
2022-09-30T22:54:06.027Z,16.00
2022-09-30T22:56:54.584Z,16.10
2022-09-30T22:59:24.685Z,16.10
2022-09-30T23:01:53.392Z,16.10
2022-09-30T23:04:44.203Z,16.10
2022-09-30T23:07:12.754Z,16.00
2022-09-30T23:09:41.521Z,16.00
2022-09-30T23:12:10.075Z,16.10
2022-09-30T23:14:57.518Z,16.00
2022-09-30T23:17:26.970Z,16.10
2022-09-30T23:19:58.351Z,16.00
2022-09-30T23:22:26.844Z,16.10
2022-09-30T23:24:55.367Z,16.10
2022-09-30T23:27:23.927Z,16.10
2022-09-30T23:32:58.023Z,16.20
2022-09-30T23:35:27.903Z,16.10
2022-09-30T23:40:44.891Z,16.00
2022-09-30T23:43:13.771Z,16.00
2022-09-30T23:45:42.403Z,16.00
2022-09-30T23:48:11.126Z,16.00
2022-09-30T23:51:02.066Z,16.10
2022-09-30T23:53:30.607Z,16.00
2022-09-30T23:56:00.587Z,16.00
2022-09-30T23:58:48.401Z,15.90
